sensor_id;sensor_type;location;lat;lon;timestamp;P1;durP1;ratioP1;P2;durP2;ratioP2
19189;SDS011;9727;50.200;19.038;2022-08-21T00:01:03;37.97;;;26.02;;
19189;SDS011;9727;50.200;19.038;2022-08-21T00:03:31;39.33;;;27.85;;
19189;SDS011;9727;50.200;19.038;2022-08-21T00:05:59;36.03;;;26.95;;
19189;SDS011;9727;50.200;19.038;2022-08-21T00:08:25;37.88;;;27.35;;
19189;SDS011;9727;50.200;19.038;2022-08-21T00:10:52;36.20;;;27.23;;
19189;SDS011;9727;50.200;19.038;2022-08-21T00:13:19;43.55;;;27.40;;
19189;SDS011;9727;50.200;19.038;2022-08-21T00:15:46;40.58;;;27.08;;
19189;SDS011;9727;50.200;19.038;2022-08-21T00:18:15;38.90;;;27.13;;
19189;SDS011;9727;50.200;19.038;2022-08-21T00:20:42;32.75;;;25.40;;
19189;SDS011;9727;50.200;19.038;2022-08-21T00:23:10;40.35;;;27.45;;
19189;SDS011;9727;50.200;19.038;2022-08-21T00:25:38;40.35;;;29.30;;
19189;SDS011;9727;50.200;19.038;2022-08-21T00:28:04;43.47;;;28.25;;
19189;SDS011;9727;50.200;19.038;2022-08-21T00:30:32;39.03;;;27.98;;
19189;SDS011;9727;50.200;19.038;2022-08-21T00:32:58;41.38;;;27.05;;
19189;SDS011;9727;50.200;19.038;2022-08-21T00:35:26;38.60;;;26.80;;
19189;SDS011;9727;50.200;19.038;2022-08-21T00:37:53;38.05;;;28.08;;
19189;SDS011;9727;50.200;19.038;2022-08-21T00:40:23;34.45;;;26.65;;
19189;SDS011;9727;50.200;19.038;2022-08-21T00:42:49;37.60;;;27.13;;
19189;SDS011;9727;50.200;19.038;2022-08-21T00:45:16;41.25;;;28.98;;
19189;SDS011;9727;50.200;19.038;2022-08-21T00:47:42;41.20;;;28.42;;
19189;SDS011;9727;50.200;19.038;2022-08-21T00:50:09;32.72;;;26.90;;
19189;SDS011;9727;50.200;19.038;2022-08-21T00:52:37;33.95;;;27.55;;
19189;SDS011;9727;50.200;19.038;2022-08-21T00:55:04;38.22;;;28.45;;
19189;SDS011;9727;50.200;19.038;2022-08-21T00:57:34;40.92;;;28.90;;
19189;SDS011;9727;50.200;19.038;2022-08-21T01:00:04;36.47;;;29.42;;
19189;SDS011;9727;50.200;19.038;2022-08-21T01:02:31;39.42;;;28.00;;
19189;SDS011;9727;50.200;19.038;2022-08-21T01:04:57;42.42;;;28.88;;
19189;SDS011;9727;50.200;19.038;2022-08-21T01:07:24;38.58;;;28.85;;
19189;SDS011;9727;50.200;19.038;2022-08-21T01:09:51;39.28;;;28.98;;
19189;SDS011;9727;50.200;19.038;2022-08-21T01:12:17;37.75;;;29.10;;
19189;SDS011;9727;50.200;19.038;2022-08-21T01:14:45;37.97;;;28.60;;
19189;SDS011;9727;50.200;19.038;2022-08-21T01:17:14;41.28;;;29.05;;
19189;SDS011;9727;50.200;19.038;2022-08-21T01:19:41;39.20;;;28.35;;
19189;SDS011;9727;50.200;19.038;2022-08-21T01:22:10;40.20;;;29.05;;
19189;SDS011;9727;50.200;19.038;2022-08-21T01:24:36;34.40;;;28.33;;
19189;SDS011;9727;50.200;19.038;2022-08-21T01:27:03;36.50;;;27.92;;
19189;SDS011;9727;50.200;19.038;2022-08-21T01:29:32;37.25;;;27.95;;
19189;SDS011;9727;50.200;19.038;2022-08-21T01:32:03;36.30;;;27.25;;
19189;SDS011;9727;50.200;19.038;2022-08-21T01:34:30;33.90;;;27.17;;
19189;SDS011;9727;50.200;19.038;2022-08-21T01:36:57;42.50;;;30.00;;
19189;SDS011;9727;50.200;19.038;2022-08-21T01:39:26;41.28;;;30.30;;
19189;SDS011;9727;50.200;19.038;2022-08-21T01:41:53;44.60;;;31.65;;
19189;SDS011;9727;50.200;19.038;2022-08-21T01:44:20;38.13;;;28.40;;
19189;SDS011;9727;50.200;19.038;2022-08-21T01:46:46;40.25;;;29.77;;
19189;SDS011;9727;50.200;19.038;2022-08-21T01:49:15;42.50;;;30.50;;
19189;SDS011;9727;50.200;19.038;2022-08-21T01:51:41;42.22;;;30.27;;
19189;SDS011;9727;50.200;19.038;2022-08-21T01:54:08;36.65;;;28.60;;
19189;SDS011;9727;50.200;19.038;2022-08-21T01:56:37;42.03;;;29.33;;
19189;SDS011;9727;50.200;19.038;2022-08-21T01:59:04;39.78;;;28.23;;
19189;SDS011;9727;50.200;19.038;2022-08-21T02:01:30;37.45;;;26.88;;
19189;SDS011;9727;50.200;19.038;2022-08-21T02:03:56;37.28;;;27.65;;
19189;SDS011;9727;50.200;19.038;2022-08-21T02:06:24;33.08;;;26.30;;
19189;SDS011;9727;50.200;19.038;2022-08-21T02:08:51;36.47;;;26.50;;
19189;SDS011;9727;50.200;19.038;2022-08-21T02:11:18;31.85;;;24.55;;
19189;SDS011;9727;50.200;19.038;2022-08-21T02:13:46;34.10;;;25.48;;
19189;SDS011;9727;50.200;19.038;2022-08-21T02:16:15;37.00;;;24.90;;
19189;SDS011;9727;50.200;19.038;2022-08-21T02:18:42;35.60;;;24.67;;
19189;SDS011;9727;50.200;19.038;2022-08-21T02:21:08;33.20;;;25.50;;
19189;SDS011;9727;50.200;19.038;2022-08-21T02:23:35;33.10;;;24.40;;
19189;SDS011;9727;50.200;19.038;2022-08-21T02:26:02;29.10;;;24.13;;
19189;SDS011;9727;50.200;19.038;2022-08-21T02:28:29;32.95;;;23.60;;
19189;SDS011;9727;50.200;19.038;2022-08-21T02:30:57;31.98;;;22.70;;
19189;SDS011;9727;50.200;19.038;2022-08-21T02:33:24;30.90;;;22.95;;
19189;SDS011;9727;50.200;19.038;2022-08-21T02:35:51;31.92;;;22.73;;
19189;SDS011;9727;50.200;19.038;2022-08-21T02:38:19;33.05;;;22.13;;
19189;SDS011;9727;50.200;19.038;2022-08-21T02:40:47;31.05;;;23.10;;
19189;SDS011;9727;50.200;19.038;2022-08-21T02:43:16;32.05;;;22.13;;
19189;SDS011;9727;50.200;19.038;2022-08-21T02:45:43;25.13;;;21.50;;
19189;SDS011;9727;50.200;19.038;2022-08-21T02:48:13;32.05;;;22.08;;
19189;SDS011;9727;50.200;19.038;2022-08-21T02:50:52;29.13;;;21.60;;
19189;SDS011;9727;50.200;19.038;2022-08-21T02:53:20;28.75;;;20.58;;
19189;SDS011;9727;50.200;19.038;2022-08-21T02:55:47;28.30;;;21.13;;
19189;SDS011;9727;50.200;19.038;2022-08-21T02:58:17;28.40;;;20.40;;
19189;SDS011;9727;50.200;19.038;2022-08-21T03:00:44;27.35;;;20.17;;
19189;SDS011;9727;50.200;19.038;2022-08-21T03:03:11;25.92;;;20.08;;
19189;SDS011;9727;50.200;19.038;2022-08-21T03:05:40;28.42;;;20.60;;
19189;SDS011;9727;50.200;19.038;2022-08-21T03:08:07;32.10;;;21.67;;
19189;SDS011;9727;50.200;19.038;2022-08-21T03:10:34;26.83;;;20.55;;
19189;SDS011;9727;50.200;19.038;2022-08-21T03:13:01;26.35;;;21.08;;
19189;SDS011;9727;50.200;19.038;2022-08-21T03:15:28;29.15;;;20.67;;
19189;SDS011;9727;50.200;19.038;2022-08-21T03:17:55;28.13;;;20.55;;
19189;SDS011;9727;50.200;19.038;2022-08-21T03:20:23;32.10;;;21.85;;
19189;SDS011;9727;50.200;19.038;2022-08-21T03:22:51;31.20;;;21.70;;
19189;SDS011;9727;50.200;19.038;2022-08-21T03:25:18;31.15;;;21.75;;
19189;SDS011;9727;50.200;19.038;2022-08-21T03:27:45;29.60;;;21.15;;
19189;SDS011;9727;50.200;19.038;2022-08-21T03:30:12;33.45;;;21.55;;
19189;SDS011;9727;50.200;19.038;2022-08-21T03:32:39;31.55;;;21.73;;
19189;SDS011;9727;50.200;19.038;2022-08-21T03:35:06;30.77;;;21.92;;
19189;SDS011;9727;50.200;19.038;2022-08-21T03:37:33;31.83;;;21.25;;
19189;SDS011;9727;50.200;19.038;2022-08-21T03:40:01;28.38;;;21.60;;
19189;SDS011;9727;50.200;19.038;2022-08-21T03:42:27;28.73;;;21.17;;
19189;SDS011;9727;50.200;19.038;2022-08-21T03:44:54;28.25;;;20.42;;
19189;SDS011;9727;50.200;19.038;2022-08-21T03:47:21;32.80;;;22.13;;
19189;SDS011;9727;50.200;19.038;2022-08-21T03:49:50;28.05;;;21.13;;
19189;SDS011;9727;50.200;19.038;2022-08-21T03:52:17;42.70;;;23.00;;
19189;SDS011;9727;50.200;19.038;2022-08-21T03:54:44;32.28;;;22.77;;
19189;SDS011;9727;50.200;19.038;2022-08-21T03:59:47;31.60;;;22.83;;
19189;SDS011;9727;50.200;19.038;2022-08-21T04:02:15;30.95;;;22.65;;
19189;SDS011;9727;50.200;19.038;2022-08-21T04:04:42;30.27;;;22.83;;
19189;SDS011;9727;50.200;19.038;2022-08-21T04:07:09;31.73;;;21.88;;
19189;SDS011;9727;50.200;19.038;2022-08-21T04:09:35;31.20;;;21.67;;
19189;SDS011;9727;50.200;19.038;2022-08-21T04:12:02;33.75;;;23.50;;
19189;SDS011;9727;50.200;19.038;2022-08-21T04:14:29;31.83;;;23.17;;
19189;SDS011;9727;50.200;19.038;2022-08-21T04:16:57;34.30;;;24.33;;
19189;SDS011;9727;50.200;19.038;2022-08-21T04:19:23;36.58;;;23.75;;
19189;SDS011;9727;50.200;19.038;2022-08-21T04:21:49;40.00;;;23.85;;
19189;SDS011;9727;50.200;19.038;2022-08-21T04:24:16;30.10;;;23.00;;
19189;SDS011;9727;50.200;19.038;2022-08-21T04:26:42;34.22;;;25.08;;
19189;SDS011;9727;50.200;19.038;2022-08-21T04:29:09;35.40;;;24.52;;
19189;SDS011;9727;50.200;19.038;2022-08-21T04:31:35;34.42;;;23.73;;
19189;SDS011;9727;50.200;19.038;2022-08-21T04:34:05;34.28;;;24.63;;
19189;SDS011;9727;50.200;19.038;2022-08-21T04:36:31;37.03;;;25.83;;
19189;SDS011;9727;50.200;19.038;2022-08-21T04:38:58;32.53;;;23.63;;
19189;SDS011;9727;50.200;19.038;2022-08-21T04:41:25;32.05;;;23.58;;
19189;SDS011;9727;50.200;19.038;2022-08-21T04:43:52;33.88;;;24.25;;
19189;SDS011;9727;50.200;19.038;2022-08-21T04:46:20;35.67;;;25.17;;
19189;SDS011;9727;50.200;19.038;2022-08-21T04:48:46;33.55;;;23.60;;
19189;SDS011;9727;50.200;19.038;2022-08-21T04:51:15;36.63;;;26.05;;
19189;SDS011;9727;50.200;19.038;2022-08-21T04:53:43;36.85;;;24.35;;
19189;SDS011;9727;50.200;19.038;2022-08-21T04:56:12;36.78;;;25.13;;
19189;SDS011;9727;50.200;19.038;2022-08-21T04:58:39;31.60;;;23.58;;
19189;SDS011;9727;50.200;19.038;2022-08-21T05:01:08;27.70;;;20.50;;
19189;SDS011;9727;50.200;19.038;2022-08-21T05:03:36;33.28;;;20.20;;
19189;SDS011;9727;50.200;19.038;2022-08-21T05:06:04;30.05;;;21.70;;
19189;SDS011;9727;50.200;19.038;2022-08-21T05:08:36;27.55;;;21.38;;
19189;SDS011;9727;50.200;19.038;2022-08-21T05:11:04;33.35;;;22.17;;
19189;SDS011;9727;50.200;19.038;2022-08-21T05:13:31;35.17;;;22.13;;
19189;SDS011;9727;50.200;19.038;2022-08-21T05:15:58;32.92;;;22.25;;
19189;SDS011;9727;50.200;19.038;2022-08-21T05:18:24;29.35;;;23.10;;
19189;SDS011;9727;50.200;19.038;2022-08-21T05:20:51;31.25;;;22.55;;
19189;SDS011;9727;50.200;19.038;2022-08-21T05:23:17;37.47;;;25.83;;
19189;SDS011;9727;50.200;19.038;2022-08-21T05:25:45;35.83;;;25.83;;
19189;SDS011;9727;50.200;19.038;2022-08-21T05:28:12;38.30;;;26.23;;
19189;SDS011;9727;50.200;19.038;2022-08-21T05:30:38;35.30;;;24.58;;
19189;SDS011;9727;50.200;19.038;2022-08-21T05:33:06;38.92;;;24.77;;
19189;SDS011;9727;50.200;19.038;2022-08-21T05:35:33;37.20;;;25.60;;
19189;SDS011;9727;50.200;19.038;2022-08-21T05:38:00;37.38;;;24.70;;
19189;SDS011;9727;50.200;19.038;2022-08-21T05:40:30;39.08;;;24.35;;
19189;SDS011;9727;50.200;19.038;2022-08-21T05:42:58;27.88;;;20.83;;
19189;SDS011;9727;50.200;19.038;2022-08-21T05:45:26;30.25;;;19.85;;
19189;SDS011;9727;50.200;19.038;2022-08-21T05:47:55;27.17;;;20.65;;
19189;SDS011;9727;50.200;19.038;2022-08-21T05:50:22;37.03;;;23.67;;
19189;SDS011;9727;50.200;19.038;2022-08-21T05:52:48;34.95;;;24.58;;
19189;SDS011;9727;50.200;19.038;2022-08-21T05:55:15;43.40;;;26.48;;
19189;SDS011;9727;50.200;19.038;2022-08-21T05:57:45;36.65;;;25.42;;
19189;SDS011;9727;50.200;19.038;2022-08-21T06:00:14;39.38;;;26.48;;
19189;SDS011;9727;50.200;19.038;2022-08-21T06:02:41;38.58;;;26.90;;
19189;SDS011;9727;50.200;19.038;2022-08-21T06:05:09;37.72;;;25.20;;
19189;SDS011;9727;50.200;19.038;2022-08-21T06:07:35;31.30;;;22.98;;
19189;SDS011;9727;50.200;19.038;2022-08-21T06:10:02;34.90;;;22.90;;
19189;SDS011;9727;50.200;19.038;2022-08-21T06:12:29;32.03;;;24.75;;
19189;SDS011;9727;50.200;19.038;2022-08-21T06:14:55;40.33;;;27.40;;
19189;SDS011;9727;50.200;19.038;2022-08-21T06:17:23;35.97;;;25.48;;
19189;SDS011;9727;50.200;19.038;2022-08-21T06:19:50;42.00;;;28.77;;
19189;SDS011;9727;50.200;19.038;2022-08-21T06:22:17;45.70;;;29.20;;
19189;SDS011;9727;50.200;19.038;2022-08-21T06:24:43;40.53;;;28.45;;
19189;SDS011;9727;50.200;19.038;2022-08-21T06:27:13;39.83;;;28.08;;
19189;SDS011;9727;50.200;19.038;2022-08-21T06:29:40;45.60;;;30.70;;
19189;SDS011;9727;50.200;19.038;2022-08-21T06:32:10;45.63;;;31.15;;
19189;SDS011;9727;50.200;19.038;2022-08-21T06:34:38;43.78;;;30.73;;
19189;SDS011;9727;50.200;19.038;2022-08-21T06:37:16;55.38;;;35.45;;
19189;SDS011;9727;50.200;19.038;2022-08-21T06:39:43;50.95;;;32.90;;
19189;SDS011;9727;50.200;19.038;2022-08-21T06:42:13;35.22;;;24.98;;
19189;SDS011;9727;50.200;19.038;2022-08-21T06:44:40;30.02;;;20.73;;
19189;SDS011;9727;50.200;19.038;2022-08-21T06:47:12;26.48;;;19.23;;
19189;SDS011;9727;50.200;19.038;2022-08-21T06:49:41;25.73;;;18.20;;
19189;SDS011;9727;50.200;19.038;2022-08-21T06:52:08;23.73;;;15.77;;
19189;SDS011;9727;50.200;19.038;2022-08-21T06:54:35;25.02;;;14.55;;
19189;SDS011;9727;50.200;19.038;2022-08-21T06:57:01;18.65;;;14.07;;
19189;SDS011;9727;50.200;19.038;2022-08-21T06:59:28;16.45;;;11.18;;
19189;SDS011;9727;50.200;19.038;2022-08-21T07:01:55;11.50;;;8.80;;
19189;SDS011;9727;50.200;19.038;2022-08-21T07:04:21;12.23;;;7.70;;
19189;SDS011;9727;50.200;19.038;2022-08-21T07:06:49;11.52;;;7.47;;
19189;SDS011;9727;50.200;19.038;2022-08-21T07:09:16;9.20;;;6.53;;
19189;SDS011;9727;50.200;19.038;2022-08-21T07:11:44;7.88;;;5.85;;
19189;SDS011;9727;50.200;19.038;2022-08-21T07:14:13;5.70;;;3.80;;
19189;SDS011;9727;50.200;19.038;2022-08-21T07:16:39;6.22;;;3.05;;
19189;SDS011;9727;50.200;19.038;2022-08-21T07:19:06;3.08;;;2.38;;
19189;SDS011;9727;50.200;19.038;2022-08-21T07:21:32;4.47;;;2.28;;
19189;SDS011;9727;50.200;19.038;2022-08-21T07:24:06;4.03;;;2.47;;
19189;SDS011;9727;50.200;19.038;2022-08-21T07:26:38;3.20;;;2.28;;
19189;SDS011;9727;50.200;19.038;2022-08-21T07:29:05;3.15;;;2.10;;
19189;SDS011;9727;50.200;19.038;2022-08-21T07:31:32;5.45;;;2.10;;
19189;SDS011;9727;50.200;19.038;2022-08-21T07:34:00;3.00;;;1.80;;
19189;SDS011;9727;50.200;19.038;2022-08-21T07:36:30;3.90;;;2.42;;
19189;SDS011;9727;50.200;19.038;2022-08-21T07:38:56;6.32;;;2.90;;
19189;SDS011;9727;50.200;19.038;2022-08-21T07:41:26;5.22;;;2.30;;
19189;SDS011;9727;50.200;19.038;2022-08-21T07:43:54;6.55;;;2.05;;
19189;SDS011;9727;50.200;19.038;2022-08-21T07:46:21;8.60;;;2.90;;
19189;SDS011;9727;50.200;19.038;2022-08-21T07:48:47;9.00;;;2.92;;
19189;SDS011;9727;50.200;19.038;2022-08-21T07:51:14;6.45;;;2.53;;
19189;SDS011;9727;50.200;19.038;2022-08-21T07:53:47;5.97;;;2.88;;
19189;SDS011;9727;50.200;19.038;2022-08-21T07:56:13;6.03;;;2.83;;
19189;SDS011;9727;50.200;19.038;2022-08-21T07:58:41;5.40;;;2.53;;
19189;SDS011;9727;50.200;19.038;2022-08-21T08:01:08;5.70;;;2.58;;
19189;SDS011;9727;50.200;19.038;2022-08-21T08:03:37;5.82;;;2.50;;
19189;SDS011;9727;50.200;19.038;2022-08-21T08:06:04;5.40;;;2.53;;
19189;SDS011;9727;50.200;19.038;2022-08-21T08:08:31;4.20;;;2.33;;
19189;SDS011;9727;50.200;19.038;2022-08-21T08:10:58;5.95;;;2.60;;
19189;SDS011;9727;50.200;19.038;2022-08-21T08:13:25;6.80;;;2.65;;
19189;SDS011;9727;50.200;19.038;2022-08-21T08:15:53;4.82;;;2.67;;
19189;SDS011;9727;50.200;19.038;2022-08-21T08:18:19;3.67;;;2.28;;
19189;SDS011;9727;50.200;19.038;2022-08-21T08:20:46;4.85;;;3.10;;
19189;SDS011;9727;50.200;19.038;2022-08-21T08:23:13;6.38;;;3.55;;
19189;SDS011;9727;50.200;19.038;2022-08-21T08:25:40;7.40;;;3.10;;
19189;SDS011;9727;50.200;19.038;2022-08-21T08:28:06;5.43;;;3.17;;
19189;SDS011;9727;50.200;19.038;2022-08-21T08:30:33;5.60;;;3.35;;
19189;SDS011;9727;50.200;19.038;2022-08-21T08:33:02;6.50;;;4.10;;
19189;SDS011;9727;50.200;19.038;2022-08-21T08:35:28;6.03;;;3.50;;
19189;SDS011;9727;50.200;19.038;2022-08-21T08:37:55;6.43;;;3.53;;
19189;SDS011;9727;50.200;19.038;2022-08-21T08:40:22;5.78;;;3.45;;
19189;SDS011;9727;50.200;19.038;2022-08-21T08:42:51;6.93;;;3.58;;
19189;SDS011;9727;50.200;19.038;2022-08-21T08:45:19;5.10;;;3.63;;
19189;SDS011;9727;50.200;19.038;2022-08-21T08:47:47;7.60;;;3.60;;
19189;SDS011;9727;50.200;19.038;2022-08-21T08:50:17;5.30;;;3.35;;
19189;SDS011;9727;50.200;19.038;2022-08-21T08:52:47;7.82;;;3.38;;
19189;SDS011;9727;50.200;19.038;2022-08-21T08:55:15;5.10;;;2.90;;
19189;SDS011;9727;50.200;19.038;2022-08-21T08:57:44;4.60;;;2.58;;
19189;SDS011;9727;50.200;19.038;2022-08-21T09:00:12;4.43;;;2.20;;
19189;SDS011;9727;50.200;19.038;2022-08-21T09:02:40;3.17;;;2.00;;
19189;SDS011;9727;50.200;19.038;2022-08-21T09:05:07;4.57;;;2.75;;
19189;SDS011;9727;50.200;19.038;2022-08-21T09:07:38;4.47;;;2.60;;
19189;SDS011;9727;50.200;19.038;2022-08-21T09:10:10;2.05;;;1.60;;
19189;SDS011;9727;50.200;19.038;2022-08-21T09:12:39;2.15;;;1.38;;
19189;SDS011;9727;50.200;19.038;2022-08-21T09:15:12;2.30;;;1.40;;
19189;SDS011;9727;50.200;19.038;2022-08-21T09:17:48;2.72;;;1.80;;
19189;SDS011;9727;50.200;19.038;2022-08-21T09:20:18;29.15;;;20.38;;
19189;SDS011;9727;50.200;19.038;2022-08-21T09:22:55;11.57;;;9.32;;
19189;SDS011;9727;50.200;19.038;2022-08-21T09:25:24;2.25;;;1.23;;
19189;SDS011;9727;50.200;19.038;2022-08-21T09:27:51;2.42;;;1.10;;
19189;SDS011;9727;50.200;19.038;2022-08-21T09:30:18;3.83;;;1.08;;
19189;SDS011;9727;50.200;19.038;2022-08-21T09:32:45;4.05;;;0.85;;
19189;SDS011;9727;50.200;19.038;2022-08-21T09:35:13;1.98;;;1.30;;
19189;SDS011;9727;50.200;19.038;2022-08-21T09:37:48;2.42;;;1.02;;
19189;SDS011;9727;50.200;19.038;2022-08-21T09:40:20;2.88;;;1.20;;
19189;SDS011;9727;50.200;19.038;2022-08-21T09:42:54;1.67;;;1.20;;
19189;SDS011;9727;50.200;19.038;2022-08-21T09:45:21;4.95;;;1.55;;
19189;SDS011;9727;50.200;19.038;2022-08-21T09:47:47;3.22;;;1.40;;
19189;SDS011;9727;50.200;19.038;2022-08-21T09:50:15;5.43;;;1.35;;
19189;SDS011;9727;50.200;19.038;2022-08-21T09:52:43;4.22;;;1.50;;
19189;SDS011;9727;50.200;19.038;2022-08-21T09:55:14;2.40;;;1.52;;
19189;SDS011;9727;50.200;19.038;2022-08-21T09:58:03;2.22;;;1.45;;
19189;SDS011;9727;50.200;19.038;2022-08-21T10:00:30;3.65;;;1.95;;
19189;SDS011;9727;50.200;19.038;2022-08-21T10:03:14;9.18;;;5.40;;
19189;SDS011;9727;50.200;19.038;2022-08-21T10:05:49;3.47;;;2.30;;
19189;SDS011;9727;50.200;19.038;2022-08-21T10:08:17;3.55;;;2.63;;
19189;SDS011;9727;50.200;19.038;2022-08-21T10:10:43;7.88;;;3.28;;
19189;SDS011;9727;50.200;19.038;2022-08-21T10:13:13;4.25;;;3.58;;
19189;SDS011;9727;50.200;19.038;2022-08-21T10:15:43;4.70;;;3.03;;
19189;SDS011;9727;50.200;19.038;2022-08-21T10:18:16;12.20;;;9.77;;
19189;SDS011;9727;50.200;19.038;2022-08-21T10:20:49;18.38;;;13.40;;
19189;SDS011;9727;50.200;19.038;2022-08-21T10:23:24;5.60;;;2.13;;
19189;SDS011;9727;50.200;19.038;2022-08-21T10:25:55;3.13;;;1.85;;
19189;SDS011;9727;50.200;19.038;2022-08-21T10:28:27;2.75;;;1.30;;
19189;SDS011;9727;50.200;19.038;2022-08-21T10:30:58;2.15;;;1.13;;
19189;SDS011;9727;50.200;19.038;2022-08-21T10:33:30;2.72;;;1.88;;
19189;SDS011;9727;50.200;19.038;2022-08-21T10:36:02;3.63;;;2.25;;
19189;SDS011;9727;50.200;19.038;2022-08-21T10:38:38;2.70;;;2.35;;
19189;SDS011;9727;50.200;19.038;2022-08-21T10:41:10;5.22;;;1.60;;
19189;SDS011;9727;50.200;19.038;2022-08-21T10:43:42;1.38;;;1.13;;
19189;SDS011;9727;50.200;19.038;2022-08-21T10:46:13;2.58;;;1.70;;
19189;SDS011;9727;50.200;19.038;2022-08-21T10:48:43;3.92;;;1.30;;
19189;SDS011;9727;50.200;19.038;2022-08-21T10:51:14;3.03;;;2.42;;
19189;SDS011;9727;50.200;19.038;2022-08-21T10:53:58;3.22;;;2.92;;
19189;SDS011;9727;50.200;19.038;2022-08-21T10:56:26;3.00;;;1.67;;
19189;SDS011;9727;50.200;19.038;2022-08-21T10:59:07;4.93;;;4.43;;
19189;SDS011;9727;50.200;19.038;2022-08-21T11:01:42;3.60;;;2.10;;
19189;SDS011;9727;50.200;19.038;2022-08-21T11:04:12;2.17;;;1.50;;
19189;SDS011;9727;50.200;19.038;2022-08-21T11:06:47;2.28;;;1.40;;
19189;SDS011;9727;50.200;19.038;2022-08-21T11:09:16;1.65;;;1.38;;
19189;SDS011;9727;50.200;19.038;2022-08-21T11:11:45;1.58;;;1.48;;
19189;SDS011;9727;50.200;19.038;2022-08-21T11:14:17;4.22;;;3.42;;
19189;SDS011;9727;50.200;19.038;2022-08-21T11:16:49;1.88;;;1.70;;
19189;SDS011;9727;50.200;19.038;2022-08-21T11:19:21;4.38;;;1.65;;
19189;SDS011;9727;50.200;19.038;2022-08-21T11:21:52;1.58;;;1.48;;
19189;SDS011;9727;50.200;19.038;2022-08-21T11:24:24;2.33;;;2.13;;
19189;SDS011;9727;50.200;19.038;2022-08-21T11:26:58;1.88;;;1.60;;
19189;SDS011;9727;50.200;19.038;2022-08-21T11:29:29;5.75;;;1.77;;
19189;SDS011;9727;50.200;19.038;2022-08-21T11:31:58;1.90;;;1.60;;
19189;SDS011;9727;50.200;19.038;2022-08-21T11:34:36;3.13;;;1.90;;
19189;SDS011;9727;50.200;19.038;2022-08-21T11:37:07;4.18;;;1.92;;
19189;SDS011;9727;50.200;19.038;2022-08-21T11:39:38;2.40;;;1.98;;
19189;SDS011;9727;50.200;19.038;2022-08-21T11:42:08;6.20;;;1.70;;
19189;SDS011;9727;50.200;19.038;2022-08-21T11:44:44;2.28;;;1.50;;
19189;SDS011;9727;50.200;19.038;2022-08-21T11:47:24;3.38;;;1.50;;
19189;SDS011;9727;50.200;19.038;2022-08-21T11:50:00;1.70;;;1.60;;
19189;SDS011;9727;50.200;19.038;2022-08-21T11:52:29;1.73;;;1.63;;
19189;SDS011;9727;50.200;19.038;2022-08-21T11:54:59;1.85;;;1.67;;
19189;SDS011;9727;50.200;19.038;2022-08-21T11:57:29;2.85;;;1.50;;
19189;SDS011;9727;50.200;19.038;2022-08-21T11:59:59;1.67;;;1.40;;
19189;SDS011;9727;50.200;19.038;2022-08-21T12:02:28;1.40;;;1.30;;
19189;SDS011;9727;50.200;19.038;2022-08-21T12:04:56;1.77;;;1.33;;
19189;SDS011;9727;50.200;19.038;2022-08-21T12:07:30;1.48;;;1.23;;
19189;SDS011;9727;50.200;19.038;2022-08-21T12:09:57;2.70;;;1.70;;
19189;SDS011;9727;50.200;19.038;2022-08-21T12:12:25;2.60;;;1.75;;
19189;SDS011;9727;50.200;19.038;2022-08-21T12:15:14;2.42;;;1.83;;
19189;SDS011;9727;50.200;19.038;2022-08-21T12:17:51;2.42;;;1.60;;
19189;SDS011;9727;50.200;19.038;2022-08-21T12:20:22;2.90;;;1.60;;
19189;SDS011;9727;50.200;19.038;2022-08-21T12:22:49;2.45;;;1.42;;
19189;SDS011;9727;50.200;19.038;2022-08-21T12:25:35;1.90;;;1.30;;
19189;SDS011;9727;50.200;19.038;2022-08-21T12:28:25;2.25;;;1.42;;
19189;SDS011;9727;50.200;19.038;2022-08-21T12:30:53;2.70;;;1.50;;
19189;SDS011;9727;50.200;19.038;2022-08-21T12:33:20;1.90;;;1.33;;
19189;SDS011;9727;50.200;19.038;2022-08-21T12:35:48;1.25;;;1.10;;
19189;SDS011;9727;50.200;19.038;2022-08-21T12:38:17;1.10;;;1.05;;
19189;SDS011;9727;50.200;19.038;2022-08-21T12:40:46;0.93;;;0.90;;
19189;SDS011;9727;50.200;19.038;2022-08-21T12:43:14;1.10;;;1.00;;
19189;SDS011;9727;50.200;19.038;2022-08-21T12:45:42;2.92;;;1.10;;
19189;SDS011;9727;50.200;19.038;2022-08-21T12:48:12;1.10;;;1.00;;
19189;SDS011;9727;50.200;19.038;2022-08-21T12:50:40;0.70;;;0.70;;
19189;SDS011;9727;50.200;19.038;2022-08-21T12:53:09;2.40;;;1.20;;
19189;SDS011;9727;50.200;19.038;2022-08-21T12:55:40;2.88;;;1.40;;
19189;SDS011;9727;50.200;19.038;2022-08-21T12:58:06;3.33;;;1.40;;
19189;SDS011;9727;50.200;19.038;2022-08-21T13:00:33;1.77;;;1.60;;
19189;SDS011;9727;50.200;19.038;2022-08-21T13:03:01;3.78;;;1.70;;
19189;SDS011;9727;50.200;19.038;2022-08-21T13:05:32;4.07;;;2.40;;
19189;SDS011;9727;50.200;19.038;2022-08-21T13:08:03;2.75;;;2.40;;
19189;SDS011;9727;50.200;19.038;2022-08-21T13:10:30;3.92;;;2.47;;
19189;SDS011;9727;50.200;19.038;2022-08-21T13:12:59;2.50;;;2.30;;
19189;SDS011;9727;50.200;19.038;2022-08-21T13:15:29;2.60;;;2.40;;
19189;SDS011;9727;50.200;19.038;2022-08-21T13:17:56;2.88;;;2.38;;
19189;SDS011;9727;50.200;19.038;2022-08-21T13:20:28;2.47;;;2.28;;
19189;SDS011;9727;50.200;19.038;2022-08-21T13:22:57;3.35;;;2.20;;
19189;SDS011;9727;50.200;19.038;2022-08-21T13:25:25;2.47;;;2.28;;
19189;SDS011;9727;50.200;19.038;2022-08-21T13:27:57;3.95;;;2.50;;
19189;SDS011;9727;50.200;19.038;2022-08-21T13:30:24;3.35;;;2.78;;
19189;SDS011;9727;50.200;19.038;2022-08-21T13:32:56;3.53;;;2.83;;
19189;SDS011;9727;50.200;19.038;2022-08-21T13:35:24;3.03;;;2.60;;
19189;SDS011;9727;50.200;19.038;2022-08-21T13:37:51;2.85;;;2.63;;
19189;SDS011;9727;50.200;19.038;2022-08-21T13:40:20;4.40;;;2.50;;
19189;SDS011;9727;50.200;19.038;2022-08-21T13:42:49;3.40;;;2.72;;
19189;SDS011;9727;50.200;19.038;2022-08-21T13:45:18;2.47;;;2.28;;
19189;SDS011;9727;50.200;19.038;2022-08-21T13:47:45;4.72;;;2.50;;
19189;SDS011;9727;50.200;19.038;2022-08-21T13:50:13;2.55;;;2.35;;
19189;SDS011;9727;50.200;19.038;2022-08-21T13:52:49;3.88;;;2.67;;
19189;SDS011;9727;50.200;19.038;2022-08-21T13:55:16;3.78;;;2.80;;
19189;SDS011;9727;50.200;19.038;2022-08-21T13:57:44;3.25;;;2.95;;
19189;SDS011;9727;50.200;19.038;2022-08-21T14:00:13;3.78;;;3.47;;
19189;SDS011;9727;50.200;19.038;2022-08-21T14:02:40;4.80;;;4.00;;
19189;SDS011;9727;50.200;19.038;2022-08-21T14:05:08;3.80;;;3.15;;
19189;SDS011;9727;50.200;19.038;2022-08-21T14:07:40;4.18;;;3.60;;
19189;SDS011;9727;50.200;19.038;2022-08-21T14:10:11;4.07;;;3.50;;
19189;SDS011;9727;50.200;19.038;2022-08-21T14:12:41;4.43;;;3.60;;
19189;SDS011;9727;50.200;19.038;2022-08-21T14:15:09;4.47;;;4.07;;
19189;SDS011;9727;50.200;19.038;2022-08-21T14:17:39;4.00;;;3.63;;
19189;SDS011;9727;50.200;19.038;2022-08-21T14:20:08;4.95;;;4.45;;
19189;SDS011;9727;50.200;19.038;2022-08-21T14:22:36;4.68;;;3.70;;
19189;SDS011;9727;50.200;19.038;2022-08-21T14:25:04;4.53;;;3.83;;
19189;SDS011;9727;50.200;19.038;2022-08-21T14:27:31;4.40;;;3.88;;
19189;SDS011;9727;50.200;19.038;2022-08-21T14:29:59;5.50;;;3.95;;
19189;SDS011;9727;50.200;19.038;2022-08-21T14:32:28;5.80;;;4.88;;
19189;SDS011;9727;50.200;19.038;2022-08-21T14:34:56;6.78;;;4.68;;
19189;SDS011;9727;50.200;19.038;2022-08-21T14:37:23;5.70;;;4.10;;
19189;SDS011;9727;50.200;19.038;2022-08-21T14:39:50;6.07;;;4.90;;
19189;SDS011;9727;50.200;19.038;2022-08-21T14:42:17;9.35;;;6.03;;
19189;SDS011;9727;50.200;19.038;2022-08-21T14:44:43;6.22;;;5.10;;
19189;SDS011;9727;50.200;19.038;2022-08-21T14:47:13;5.90;;;4.50;;